Airfield :
LOGIN :

Register | Disclaimer

   EN    FR    IT 

 










Legend :    VFR   Marginal VFR   IFR   Intensive IFR   Very Intensive IFR
Visi :
Ceiling :
>= 8 km
>= 3000ft
5 to 8 km
1000 to 3000 ft
1500m to 5 km
500 to 1000 ft
800 to 1500m
200 to 500 ft
< 800m
< 200 ft
Symbols :   Thunderstorms  Fog  Heavy snow  Heavy precipitations  Wind > 20 kt
SIGMETs :     Misc.  Thunderstorms  Icing  Turbulence  Mountain Waves  Volcanic Ashes






- Airport Elevation : 405 ft
- IATA code : ODH


EGVO - RAF Odiham

CURRENT METAR :
  • 300950Z 20011KT CAVOK 14/10 Q1008 NOSIG RMK BLU BLU

EXPIRED METARs :
  • 300920Z 21010KT CAVOK 13/10 Q1008 NOSIG RMK BLU BLU
  • 300850Z 21011KT CAVOK 12/09 Q1008 NOSIG RMK BLU BLU
  • 300820Z AUTO 22011KT 9999 NCD 13/10 Q1008
  • 300750Z AUTO 21007KT 9000 // NCD 11/11 Q1008
  • 300720Z AUTO 21004KT 6000 REFG NCD 08/08 Q1009

TAF TAF EGVO
Valid from the 30 at 09:00 until the 30 at 21:00 UTC


300731Z 3009/3021 20006KT 9999 FEW025
TEMPO 3009/3014 SCT020
BECMG 3012/3015 21015G26KT
TEMPO 3014/3021 22025G35KT 5000 RA BKN010
PROB30
TEMPO 3016/3021 3000 +RA SCT006



MET'MAP, your aeronautical weather chart ! - Copyright ORBIFLY December 2007 - Disclaimer

ORBIFLY MET'MAP TEAM :

Programming & Development : Alexandra Zaïnal
Original concept : Baudouin d'Aumeries
Technical & hardware support : Manuel Goepfert
Assistance : Marc-Olivier Méhu




SOURCES & CREDITS :

   NOAA